MET'MAP v2.0
soon released !

Expected late october,
this new version will be
more efficient, smarter,
and hosted on a brand new
server x3 powerfull...
...and still free !


Not compatible ?
Try the mobile version !

LOG IN : | Subscribe | Disclaimer | Who is Orbifly ? |
ICAO code :

TAF - UMKK Khrabrava Airport - Kaliningrad - 31 May 2020 01:43 UTC - Data Source NOAA   


- Airport Elevation : 42 ft
- IATA code : KGD
- No reported NOTAMs.


UMKK - Khrabrava Airport - Kaliningrad

Latest METAR recorded : 2015/08/11 08:00 UMKK 110800Z 12003MPS 090V160 CAVOK 25/18 Q1018 R24/CLRD70 NOSIG RMK QFE763/1017
TAF TAF UMKK
Valid from the 31 at 00:00 until the 01 at 00:00 UTC


302253Z 3100/3124 01010G16MPS CAVOK
TEMPO 3100/3112 03012G17MPS
BECMG 3114/3116 02008G14MPS

Source NOAA


MET'MAP, your aeronautical weather chart ! - Copyright ORBIFLY December 2007

Programming & Development : Alexandra Zaïnal
Co-Developer : Marc-Olivier Méhu
Technical & hardware support : Manuel Goepfert
Concept & Financing : Baudouin d'Aumeries